Time;durP1;ratioP1;P1;durP2;ratioP2;P2;SDS_P1;SDS_P2;PMS_P1;PMS_P2;Temp;Humidity;BMP_temperature;BMP_pressure;BME280_temperature;BME280_humidity;BME280_pressure;Samples;Min_cycle;Max_cycle;Signal;HPM_P1;HPM_P2
2022/07/03 00:01:01;;;;;;;;;;;;;;;23.83;80.83;97342.53;578206;245;66536;-69
2022/07/03 00:03:28;;;;;;;;;;;;;;;23.83;80.88;97346.02;578232;245;63651;-69
2022/07/03 00:05:56;;;;;;;;;;;;;;;23.83;80.89;97345.22;578262;245;68631;-70
2022/07/03 00:08:23;;;;;;;;;;;;;;;23.83;80.96;97351.38;578218;245;68325;-69
2022/07/03 00:10:51;;;;;;;;;;;;;;;23.84;81.04;97354.86;578255;245;64906;-69
2022/07/03 00:13:18;;;;;;;;;;;;;;;23.83;81.00;97351.38;578224;245;68389;-69
2022/07/03 00:15:46;;;;;;;;;;;;;;;23.84;80.99;97349.50;578239;245;68330;-69
2022/07/03 00:18:13;;;;;;;;;;;;;;;23.83;81.05;97353.27;578198;245;65007;-69
2022/07/03 00:20:42;;;;;;;;;;;;;;;23.83;80.94;97350.59;578283;245;68668;-69
2022/07/03 00:23:10;;;;;;;;;;;;;;;23.84;80.98;97352.18;578226;243;68298;-70
2022/07/03 00:25:39;;;;;;;;;;;;;;;23.83;80.95;97343.33;578205;245;63830;-71
2022/07/03 00:28:08;;;;;;;;;;;;;;;23.83;80.99;97346.02;578245;245;68392;-71
2022/07/03 00:30:36;;;;;;;;;;;;;;;23.84;80.96;97349.50;578233;245;68526;-71
2022/07/03 00:33:06;;;;;;;;;;;;;;;23.83;80.87;97350.59;578250;245;64890;-69
2022/07/03 00:35:36;;;;;;;;;;;;;;;23.83;80.95;97348.70;578240;245;66529;-69
2022/07/03 00:38:03;;;;;;;;;;;;;;;23.83;81.07;97347.91;578093;245;66511;-69
2022/07/03 00:40:31;;;;;;;;;;;;;;;23.83;81.07;97343.33;578213;245;62751;-69
2022/07/03 00:43:00;;;;;;;;;;;;;;;23.83;81.15;97343.33;578200;245;66505;-69
2022/07/03 00:45:29;;;;;;;;;;;;;;;23.83;81.06;97345.22;578255;245;68754;-70
2022/07/03 00:47:56;;;;;;;;;;;;;;;23.83;81.07;97340.65;578218;245;65068;-70
2022/07/03 00:50:28;;;;;;;;;;;;;;;23.83;81.06;97343.33;578217;245;68650;-69
2022/07/03 00:52:57;;;;;;;;;;;;;;;23.84;81.04;97349.50;578169;245;66468;-69
2022/07/03 00:55:26;;;;;;;;;;;;;;;23.82;81.09;97333.69;581233;244;62829;-69
2022/07/03 00:57:55;;;;;;;;;;;;;;;23.83;81.17;97329.91;581610;244;68681;-69
2022/07/03 01:00:23;;;;;;;;;;;;;;;23.84;81.22;97322.66;581631;244;68405;-69
2022/07/03 01:02:58;;;;;;;;;;;;;;;23.84;81.17;97325.34;581592;244;65085;-69
2022/07/03 01:05:28;;;;;;;;;;;;;;;23.83;81.16;97323.75;581516;243;68804;-70
2022/07/03 01:07:56;;;;;;;;;;;;;;;23.83;81.14;97331.80;581554;244;66896;-69
2022/07/03 01:10:35;;;;;;;;;;;;;;;23.82;81.16;97322.95;581569;243;62808;-69
2022/07/03 01:13:10;;;;;;;;;;;;;;;23.83;81.21;97323.75;581647;243;66737;-69
2022/07/03 01:15:51;;;;;;;;;;;;;;;23.82;81.18;97316.80;581970;243;66487;-69
2022/07/03 01:18:21;;;;;;;;;;;;;;;23.83;81.23;97321.06;581589;244;64920;-69
2022/07/03 01:20:50;;;;;;;;;;;;;;;23.81;81.17;97318.66;581597;244;68763;-69
2022/07/03 01:23:22;;;;;;;;;;;;;;;23.82;81.19;97320.27;581516;244;68517;-71
2022/07/03 01:25:50;;;;;;;;;;;;;;;23.82;81.25;97314.91;581569;243;62915;-71
2022/07/03 01:28:19;;;;;;;;;;;;;;;23.81;81.27;97307.92;581591;244;68326;-70
2022/07/03 01:30:48;;;;;;;;;;;;;;;23.81;81.24;97310.60;581614;244;66464;-71
2022/07/03 01:33:17;;;;;;;;;;;;;;;23.81;81.15;97315.97;581550;244;62670;-71
2022/07/03 01:35:49;;;;;;;;;;;;;;;23.81;81.18;97310.60;581579;244;68964;-71
2022/07/03 01:38:17;;;;;;;;;;;;;;;23.84;81.22;97319.97;581546;243;68649;-70
2022/07/03 01:40:45;;;;;;;;;;;;;;;23.83;81.21;97315.70;581566;244;64919;-70
2022/07/03 01:43:13;;;;;;;;;;;;;;;23.82;81.27;97312.22;581600;244;68646;-70
2022/07/03 01:45:43;;;;;;;;;;;;;;;23.82;81.33;97309.54;581570;244;66468;-70
2022/07/03 01:48:12;;;;;;;;;;;;;;;23.83;81.38;97304.97;581498;243;64940;-70
2022/07/03 01:50:41;;;;;;;;;;;;;;;23.82;81.26;97312.22;581613;244;68611;-70
2022/07/03 01:53:10;;;;;;;;;;;;;;;23.82;81.26;97304.17;581515;244;66711;-70
2022/07/03 01:55:38;;;;;;;;;;;;;;;23.82;81.15;97306.85;578282;244;64853;-70
2022/07/03 01:58:06;;;;;;;;;;;;;;;23.82;81.09;97309.54;578242;245;68653;-70
2022/07/03 02:00:35;;;;;;;;;;;;;;;23.82;81.14;97314.11;578192;245;68586;-70
2022/07/03 02:03:04;;;;;;;;;;;;;;;23.82;81.16;97306.06;578229;243;64908;-70
2022/07/03 02:05:39;;;;;;;;;;;;;;;23.82;81.21;97312.22;578184;245;68661;-70
2022/07/03 02:08:14;;;;;;;;;;;;;;;23.83;81.28;97313.02;578184;245;68749;-70
2022/07/03 02:10:46;;;;;;;;;;;;;;;23.83;81.31;97313.02;578232;243;62761;-70
2022/07/03 02:13:18;;;;;;;;;;;;;;;23.82;81.29;97311.42;578202;245;66490;-69
2022/07/03 02:15:47;;;;;;;;;;;;;;;23.82;81.33;97311.42;578195;245;66330;-69
2022/07/03 02:18:16;;;;;;;;;;;;;;;23.82;81.42;97316.80;578165;243;62730;-69
2022/07/03 02:20:45;;;;;;;;;;;;;;;23.82;81.42;97311.42;577842;244;66540;-69
2022/07/03 02:23:14;;;;;;;;;;;;;;;23.82;81.47;97314.11;578209;243;66782;-69
2022/07/03 02:25:43;;;;;;;;;;;;;;;23.81;81.50;97310.60;578256;245;62787;-69
2022/07/03 02:28:16;;;;;;;;;;;;;;;23.82;81.42;97311.42;578193;245;68678;-69
2022/07/03 02:30:47;;;;;;;;;;;;;;;23.82;81.39;97314.91;576697;244;68575;-69
2022/07/03 02:33:15;;;;;;;;;;;;;;;23.81;81.34;97307.92;578202;245;62804;-70
2022/07/03 02:35:44;;;;;;;;;;;;;;;23.82;81.29;97300.69;578159;243;67429;-70
2022/07/03 02:38:23;;;;;;;;;;;;;;;23.82;81.32;97312.22;578234;245;68595;-70
2022/07/03 02:40:52;;;;;;;;;;;;;;;23.82;81.36;97311.42;577993;245;65504;-70
2022/07/03 02:43:33;;;;;;;;;;;;;;;23.82;81.42;97306.85;578159;243;68359;-70
2022/07/03 02:49:19;;;;;;;;;;;;;;;23.82;81.39;97300.69;578174;245;65189;-70
2022/07/03 02:51:53;;;;;;;;;;;;;;;23.82;81.35;97312.22;578202;245;66737;-71
2022/07/03 02:54:20;;;;;;;;;;;;;;;23.81;81.48;97313.28;578123;244;66564;-71
2022/07/03 02:57:06;;;;;;;;;;;;;;;23.81;81.45;97305.23;578204;245;62983;-71
2022/07/03 02:59:38;;;;;;;;;;;;;;;23.80;81.54;97309.01;578201;245;68667;-71
2022/07/03 03:02:10;;;;;;;;;;;;;;;23.81;81.66;97310.60;578242;245;68636;-71
2022/07/03 03:04:39;;;;;;;;;;;;;;;23.81;81.60;97315.17;578172;244;62940;-72
2022/07/03 03:07:11;;;;;;;;;;;;;;;23.80;81.60;97311.70;578252;245;68398;-71
2022/07/03 03:09:42;;;;;;;;;;;;;;;23.80;81.54;97309.01;578193;243;68607;-71
2022/07/03 03:12:11;;;;;;;;;;;;;;;23.81;81.59;97310.60;578205;245;64917;-71
2022/07/03 03:14:40;;;;;;;;;;;;;;;23.81;81.55;97310.60;578248;245;68685;-71
2022/07/03 03:17:09;;;;;;;;;;;;;;;23.81;81.64;97309.80;578195;243;66475;-71
2022/07/03 03:19:38;;;;;;;;;;;;;;;23.81;81.60;97312.48;578215;245;63018;-71
2022/07/03 03:22:10;;;;;;;;;;;;;;;23.81;81.58;97313.28;578187;243;66440;-71
2022/07/03 03:24:37;;;;;;;;;;;;;;;23.81;81.54;97309.80;578208;245;68557;-71
2022/07/03 03:27:06;;;;;;;;;;;;;;;23.81;81.54;97309.80;578218;245;63690;-71
2022/07/03 03:29:34;;;;;;;;;;;;;;;23.81;81.59;97307.12;578271;245;68654;-71
2022/07/03 03:32:03;;;;;;;;;;;;;;;23.81;81.70;97310.60;578257;245;68369;-71
2022/07/03 03:34:32;;;;;;;;;;;;;;;23.82;81.60;97311.42;578225;245;64867;-72
2022/07/03 03:37:00;;;;;;;;;;;;;;;23.81;81.51;97304.44;578239;245;66451;-71
2022/07/03 03:39:28;;;;;;;;;;;;;;;23.81;81.60;97304.44;578161;245;66800;-71
2022/07/03 03:41:56;;;;;;;;;;;;;;;23.81;81.45;97304.44;578262;245;64923;-71
2022/07/03 03:44:24;;;;;;;;;;;;;;;23.82;81.52;97300.69;578154;245;68668;-71
2022/07/03 03:46:51;;;;;;;;;;;;;;;23.82;81.49;97298.80;578192;245;68625;-71
2022/07/03 03:49:19;;;;;;;;;;;;;;;23.82;81.43;97301.48;578214;245;64989;-71
2022/07/03 03:51:47;;;;;;;;;;;;;;;23.82;81.47;97306.06;578236;245;68757;-72
2022/07/03 03:54:14;;;;;;;;;;;;;;;23.81;81.58;97304.44;578184;244;68663;-71
2022/07/03 03:56:42;;;;;;;;;;;;;;;23.82;81.50;97319.48;578231;245;64871;-71
2022/07/03 03:59:09;;;;;;;;;;;;;;;23.82;81.64;97316.80;578223;245;68294;-71
2022/07/03 04:01:37;;;;;;;;;;;;;;;23.81;81.63;97315.97;578211;245;68613;-72
2022/07/03 04:04:04;;;;;;;;;;;;;;;23.82;81.66;97319.48;578229;245;62762;-71
2022/07/03 04:06:32;;;;;;;;;;;;;;;23.81;81.58;97317.86;578166;245;66728;-72
2022/07/03 04:08:59;;;;;;;;;;;;;;;23.80;81.60;97317.06;578228;245;68353;-72
2022/07/03 04:11:27;;;;;;;;;;;;;;;23.81;81.53;97317.86;578210;245;62884;-71
2022/07/03 04:13:54;;;;;;;;;;;;;;;23.82;81.65;97322.16;578198;245;66441;-71
2022/07/03 04:16:22;;;;;;;;;;;;;;;23.81;81.57;97325.91;578221;245;66487;-71
2022/07/03 04:18:49;;;;;;;;;;;;;;;23.82;81.79;97322.16;578246;245;62723;-71
2022/07/03 04:21:17;;;;;;;;;;;;;;;23.81;81.71;97313.28;578245;245;68127;-71
2022/07/03 04:23:44;;;;;;;;;;;;;;;23.81;81.78;97317.86;578223;245;69233;-71
2022/07/03 04:26:12;;;;;;;;;;;;;;;23.81;81.64;97315.17;578227;245;64931;-71
2022/07/03 04:28:41;;;;;;;;;;;;;;;23.81;81.74;97315.17;578237;245;68335;-71
2022/07/03 04:31:08;;;;;;;;;;;;;;;23.81;81.84;97313.28;578299;245;68294;-71
2022/07/03 04:33:36;;;;;;;;;;;;;;;23.82;81.68;97322.16;578195;245;65148;-71
2022/07/03 04:36:04;;;;;;;;;;;;;;;23.81;81.64;97312.48;578233;245;68421;-71
2022/07/03 04:38:32;;;;;;;;;;;;;;;23.81;81.71;97325.91;578211;245;68333;-71
2022/07/03 04:40:59;;;;;;;;;;;;;;;23.81;81.67;97324.02;578245;245;62749;-70
2022/07/03 04:43:27;;;;;;;;;;;;;;;23.82;81.77;97327.53;578234;245;66179;-70
2022/07/03 04:45:54;;;;;;;;;;;;;;;23.81;81.74;97321.34;578235;245;66251;-70
2022/07/03 04:48:22;;;;;;;;;;;;;;;23.81;81.77;97328.59;578191;245;62545;-70
2022/07/03 04:50:49;;;;;;;;;;;;;;;23.81;81.84;97328.59;578233;245;66280;-70
2022/07/03 04:53:17;;;;;;;;;;;;;;;23.81;81.83;97336.64;578124;244;66805;-70
2022/07/03 04:55:44;;;;;;;;;;;;;;;23.81;81.77;97339.33;578242;245;62806;-70
2022/07/03 04:58:12;;;;;;;;;;;;;;;23.81;81.78;97339.33;578231;245;68636;-70
2022/07/03 05:00:44;;;;;;;;;;;;;;;23.81;81.81;97332.07;578192;245;68496;-70
2022/07/03 05:03:08;;;;;;;;;;;;;;;23.81;81.77;97334.75;577947;243;65286;-69
2022/07/03 05:05:36;;;;;;;;;;;;;;;23.80;81.87;97333.16;578203;245;69634;-69
2022/07/03 05:08:03;;;;;;;;;;;;;;;23.82;81.86;97335.58;578232;245;68633;-70
2022/07/03 05:10:31;;;;;;;;;;;;;;;23.80;81.82;97330.48;578236;245;64931;-69
2022/07/03 05:12:58;;;;;;;;;;;;;;;23.81;81.79;97336.64;578187;245;68368;-70
2022/07/03 05:15:26;;;;;;;;;;;;;;;23.80;81.85;97333.16;578195;245;68676;-70
2022/07/03 05:17:53;;;;;;;;;;;;;;;23.80;82.05;97335.84;578195;245;62857;-69
2022/07/03 05:20:24;;;;;;;;;;;;;;;23.81;81.96;97331.28;578191;245;66827;-69
2022/07/03 05:22:52;;;;;;;;;;;;;;;23.81;81.97;97331.28;578258;245;66558;-70
2022/07/03 05:25:19;;;;;;;;;;;;;;;23.80;81.95;97327.80;578185;245;63051;-70
2022/07/03 05:27:49;;;;;;;;;;;;;;;23.80;82.00;97329.69;578183;245;68753;-69
2022/07/03 05:30:17;;;;;;;;;;;;;;;23.80;82.00;97330.48;578165;245;68593;-69
2022/07/03 05:32:44;;;;;;;;;;;;;;;23.80;82.14;97321.63;578221;245;65029;-69
2022/07/03 05:35:12;;;;;;;;;;;;;;;23.80;82.08;97332.37;578254;245;68706;-69
2022/07/03 05:37:40;;;;;;;;;;;;;;;23.79;81.90;97334.25;578201;245;68554;-69
2022/07/03 05:40:08;;;;;;;;;;;;;;;23.80;82.12;97327.80;578171;245;64991;-69
2022/07/03 05:42:35;;;;;;;;;;;;;;;23.80;82.12;97322.43;578180;245;68894;-69
2022/07/03 05:45:03;;;;;;;;;;;;;;;23.79;82.08;97323.52;578162;245;68570;-69
2022/07/03 05:47:30;;;;;;;;;;;;;;;23.80;82.01;97327.00;578266;245;65256;-69
2022/07/03 05:49:58;;;;;;;;;;;;;;;23.80;82.05;97329.69;578196;245;68677;-69
2022/07/03 05:52:25;;;;;;;;;;;;;;;23.80;82.07;97335.05;578178;245;66550;-69
2022/07/03 05:54:53;;;;;;;;;;;;;;;23.80;81.99;97329.69;580426;244;64932;-69
2022/07/03 05:57:21;;;;;;;;;;;;;;;23.80;82.13;97332.37;581585;244;68663;-69
2022/07/03 05:59:48;;;;;;;;;;;;;;;23.80;82.01;97329.69;581628;244;68343;-69
2022/07/03 06:02:17;;;;;;;;;;;;;;;23.79;82.07;97330.75;581582;244;64922;-70
2022/07/03 06:04:44;;;;;;;;;;;;;;;23.80;82.08;97329.69;581560;244;66375;-70
2022/07/03 06:07:12;;;;;;;;;;;;;;;23.79;82.04;97334.25;581535;244;66792;-70
2022/07/03 06:09:39;;;;;;;;;;;;;;;23.80;82.11;97332.37;581580;244;64964;-69
2022/07/03 06:12:07;;;;;;;;;;;;;;;23.80;82.04;97329.69;581586;244;68669;-71
2022/07/03 06:14:34;;;;;;;;;;;;;;;23.80;82.81;97337.73;581605;244;66510;-71
2022/07/03 06:17:02;;;;;;;;;;;;;;;23.78;81.18;97332.64;581576;244;62830;-71
2022/07/03 06:19:30;;;;;;;;;;;;;;;23.80;81.50;97335.84;581571;244;68700;-71
2022/07/03 06:21:57;;;;;;;;;;;;;;;23.81;81.34;97331.28;581540;244;68473;-71
2022/07/03 06:24:25;;;;;;;;;;;;;;;23.80;81.51;97330.48;581603;244;64989;-71
2022/07/03 06:26:52;;;;;;;;;;;;;;;23.81;81.71;97331.28;581627;244;66314;-71
2022/07/03 06:29:20;;;;;;;;;;;;;;;23.82;81.99;97332.90;581553;244;68485;-71
2022/07/03 06:31:47;;;;;;;;;;;;;;;23.81;82.07;97325.91;581563;244;62799;-71
2022/07/03 06:34:15;;;;;;;;;;;;;;;23.83;82.35;97334.48;581532;244;66684;-71
2022/07/03 06:36:42;;;;;;;;;;;;;;;23.81;82.35;97325.91;581567;244;66470;-71
2022/07/03 06:39:10;;;;;;;;;;;;;;;23.82;82.48;97333.69;581642;244;62764;-71
2022/07/03 06:41:37;;;;;;;;;;;;;;;23.83;82.36;97329.12;581587;244;66518;-71
2022/07/03 06:44:05;;;;;;;;;;;;;;;23.83;82.64;97324.55;581607;244;68441;-71
2022/07/03 06:46:32;;;;;;;;;;;;;;;23.83;82.85;97318.38;581605;244;62738;-71
2022/07/03 06:49:00;;;;;;;;;;;;;;;23.82;82.99;97320.27;581587;244;66481;-71
2022/07/03 06:51:27;;;;;;;;;;;;;;;23.83;83.22;97313.81;581647;244;66332;-71
2022/07/03 06:53:55;;;;;;;;;;;;;;;23.82;83.23;97320.27;580610;244;62855;-69
2022/07/03 06:56:22;;;;;;;;;;;;;;;23.83;83.25;97316.49;578213;245;67796;-69
2022/07/03 06:58:50;;;;;;;;;;;;;;;23.83;83.24;97315.70;578235;245;68530;-69
2022/07/03 07:01:17;;;;;;;;;;;;;;;23.83;83.24;97319.17;578219;245;64877;-69
2022/07/03 07:03:45;;;;;;;;;;;;;;;23.83;83.31;97308.44;578248;245;68654;-69
2022/07/03 07:06:12;;;;;;;;;;;;;;;23.83;83.28;97311.13;578211;245;68580;-69
2022/07/03 07:08:39;;;;;;;;;;;;;;;23.84;83.28;97303.87;578225;245;64952;-69
2022/07/03 07:11:07;;;;;;;;;;;;;;;23.84;83.15;97311.92;578228;245;68877;-69
2022/07/03 07:13:34;;;;;;;;;;;;;;;23.84;83.10;97307.34;578209;245;68362;-69
2022/07/03 07:16:02;;;;;;;;;;;;;;;23.85;83.19;97313.55;578192;245;64898;-69
2022/07/03 07:18:29;;;;;;;;;;;;;;;23.85;83.21;97314.34;578288;245;68710;-69
2022/07/03 07:20:57;;;;;;;;;;;;;;;23.85;83.26;97317.02;578204;245;68928;-69
2022/07/03 07:23:24;;;;;;;;;;;;;;;23.85;83.29;97316.23;578211;245;65005;-70
2022/07/03 07:25:52;;;;;;;;;;;;;;;23.86;83.32;97312.45;578206;245;68668;-69
2022/07/03 07:28:19;;;;;;;;;;;;;;;23.85;83.36;97314.34;578225;245;68490;-69
2022/07/03 07:30:47;;;;;;;;;;;;;;;23.85;83.33;97300.92;578232;245;62767;-69
2022/07/03 07:33:14;;;;;;;;;;;;;;;23.86;83.28;97307.08;578211;245;66417;-69
2022/07/03 07:35:42;;;;;;;;;;;;;;;23.86;83.11;97309.77;578213;245;66481;-69
2022/07/03 07:38:09;;;;;;;;;;;;;;;23.87;83.33;97314.03;578239;245;62764;-69
2022/07/03 07:40:37;;;;;;;;;;;;;;;23.86;83.16;97307.08;578215;245;68208;-69
2022/07/03 07:43:04;;;;;;;;;;;;;;;23.87;83.19;97308.67;578233;245;68625;-69
2022/07/03 07:45:32;;;;;;;;;;;;;;;23.87;83.23;97305.98;578186;245;64908;-69
2022/07/03 07:47:59;;;;;;;;;;;;;;;23.86;83.23;97307.88;578212;245;68851;-69
2022/07/03 07:50:27;;;;;;;;;;;;;;;23.87;83.01;97314.03;578214;245;68551;-69
2022/07/03 07:52:55;;;;;;;;;;;;;;;23.87;83.02;97311.35;578214;245;64938;-69
2022/07/03 07:55:22;;;;;;;;;;;;;;;23.87;83.16;97319.41;578206;244;68509;-69
2022/07/03 07:57:50;;;;;;;;;;;;;;;23.87;83.09;97314.86;578184;245;68582;-69
2022/07/03 08:00:18;;;;;;;;;;;;;;;23.88;83.11;97316.45;578206;245;64986;-69
2022/07/03 08:05:38;;;;;;;;;;;;;;;23.87;83.00;97308.67;578219;245;66585;-69
2022/07/03 08:08:10;;;;;;;;;;;;;;;23.88;82.97;97312.97;578199;245;64894;-69
2022/07/03 08:10:39;;;;;;;;;;;;;;;23.88;83.01;97308.41;578258;245;68668;-69
2022/07/03 08:13:07;;;;;;;;;;;;;;;23.88;82.95;97308.41;578218;245;68673;-69
2022/07/03 08:15:34;;;;;;;;;;;;;;;23.88;82.95;97305.72;578192;245;65184;-69
2022/07/03 08:18:02;;;;;;;;;;;;;;;23.89;82.87;97311.88;578235;245;68643;-69
2022/07/03 08:20:30;;;;;;;;;;;;;;;23.90;82.86;97316.19;578174;245;68472;-69
2022/07/03 08:22:57;;;;;;;;;;;;;;;23.88;82.93;97310.29;578254;245;63876;-69
2022/07/03 08:25:26;;;;;;;;;;;;;;;23.88;82.83;97311.09;578246;245;68660;-69
2022/07/03 08:27:53;;;;;;;;;;;;;;;23.90;82.77;97318.87;578251;245;68072;-69
2022/07/03 08:30:21;;;;;;;;;;;;;;;23.90;82.69;97318.87;578223;245;64970;-69
2022/07/03 08:32:49;;;;;;;;;;;;;;;23.91;82.74;97320.46;578236;245;68358;-69
2022/07/03 08:35:15;;;;;;;;;;;;;;;;;;578185;245;66503;-69
2022/07/03 08:37:46;;;;;;;;;;;;;;;23.91;82.68;97317.77;578313;245;64903;-69
2022/07/03 08:40:13;;;;;;;;;;;;;;;23.90;82.80;97310.81;578235;245;68411;-70
2022/07/03 08:42:42;;;;;;;;;;;;;;;23.90;82.60;97310.81;578211;245;66269;-69
2022/07/03 08:45:11;;;;;;;;;;;;;;;23.91;82.62;97318.57;578189;244;64899;-69
2022/07/03 08:47:39;;;;;;;;;;;;;;;23.91;82.64;97315.09;578166;243;65205;-69
2022/07/03 08:50:07;;;;;;;;;;;;;;;23.91;82.76;97320.46;578252;245;66470;-69
2022/07/03 08:52:34;;;;;;;;;;;;;;;;;;578209;245;62852;-69
2022/07/03 08:55:02;;;;;;;;;;;;;;;23.92;82.68;97319.36;578243;244;67243;-69
2022/07/03 08:57:32;;;;;;;;;;;;;;;23.91;82.65;97315.88;578199;245;66727;-69
2022/07/03 08:59:59;;;;;;;;;;;;;;;;;;578177;245;65116;-69
2022/07/03 09:02:27;;;;;;;;;;;;;;;23.91;82.60;97310.52;578284;245;67631;-69
2022/07/03 09:04:56;;;;;;;;;;;;;;;23.91;82.61;97309.72;578189;245;68556;-69
2022/07/03 09:07:24;;;;;;;;;;;;;;;23.91;82.56;97304.35;578213;245;65251;-69
2022/07/03 09:09:52;;;;;;;;;;;;;;;23.91;82.43;97318.57;578191;245;68723;-69
2022/07/03 09:12:21;;;;;;;;;;;;;;;23.91;82.52;97313.20;578226;245;68446;-69
2022/07/03 09:14:48;;;;;;;;;;;;;;;23.91;82.53;97315.88;578205;245;65001;-69
2022/07/03 09:17:16;;;;;;;;;;;;;;;23.92;82.56;97311.31;578285;245;68681;-69
2022/07/03 09:19:45;;;;;;;;;;;;;;;23.92;82.36;97316.68;578207;245;68775;-69
2022/07/03 09:22:22;;;;;;;;;;;;;;;23.93;82.59;97307.56;578197;245;65090;-69
2022/07/03 09:24:50;;;;;;;;;;;;;;;23.92;82.57;97306.73;578196;245;66557;-69
2022/07/03 09:27:18;;;;;;;;;;;;;;;23.93;82.48;97304.88;578152;245;68611;-69
2022/07/03 09:29:53;;;;;;;;;;;;;;;23.93;82.49;97307.56;578252;245;65036;-69
2022/07/03 09:32:22;;;;;;;;;;;;;;;23.92;82.52;97306.73;578179;245;66455;-69
2022/07/03 09:34:50;;;;;;;;;;;;;;;23.93;82.45;97304.88;578183;245;66706;-70
2022/07/03 09:37:18;;;;;;;;;;;;;;;23.93;82.42;97304.88;578196;245;62848;-69
2022/07/03 09:39:47;;;;;;;;;;;;;;;23.92;82.43;97297.89;578236;243;66589;-69
2022/07/03 09:42:16;;;;;;;;;;;;;;;23.93;82.33;97302.20;578191;245;66218;-69
2022/07/03 09:44:46;;;;;;;;;;;;;;;23.93;82.32;97297.63;578203;243;62767;-69
2022/07/03 09:47:17;;;;;;;;;;;;;;;23.93;82.38;97297.63;578211;245;69025;-69
2022/07/03 09:49:49;;;;;;;;;;;;;;;23.93;82.39;97291.45;578169;245;68943;-71
2022/07/03 09:52:36;;;;;;;;;;;;;;;23.93;82.42;97292.25;578155;245;65800;-71
2022/07/03 09:55:11;;;;;;;;;;;;;;;23.93;82.33;97291.45;578174;244;68801;-71
2022/07/03 09:57:40;;;;;;;;;;;;;;;23.94;82.38;97290.36;578253;245;68539;-71
2022/07/03 10:00:12;;;;;;;;;;;;;;;23.94;82.47;97287.68;578153;245;63683;-71
2022/07/03 10:02:53;;;;;;;;;;;;;;;23.93;82.43;97286.88;578198;245;68652;-71
2022/07/03 10:05:25;;;;;;;;;;;;;;;23.93;82.46;97281.52;578210;245;69019;-71
2022/07/03 10:08:02;;;;;;;;;;;;;;;23.93;82.53;97284.20;578216;245;65226;-71
2022/07/03 10:10:35;;;;;;;;;;;;;;;23.94;82.54;97276.94;578213;245;66184;-71
2022/07/03 10:13:03;;;;;;;;;;;;;;;23.94;82.53;97271.57;578242;245;68820;-71
2022/07/03 10:15:32;;;;;;;;;;;;;;;23.93;82.54;97264.61;578208;245;64908;-71
2022/07/03 10:18:00;;;;;;;;;;;;;;;23.93;82.50;97265.41;578215;245;68873;-71
2022/07/03 10:20:29;;;;;;;;;;;;;;;23.93;82.46;97275.35;578240;245;68560;-71
2022/07/03 10:22:57;;;;;;;;;;;;;;;23.94;82.48;97271.57;578216;245;64955;-71
2022/07/03 10:25:25;;;;;;;;;;;;;;;23.95;82.52;97269.68;578265;245;68745;-71
2022/07/03 10:27:52;;;;;;;;;;;;;;;23.94;82.54;97271.57;578174;245;68527;-71
2022/07/03 10:30:21;;;;;;;;;;;;;;;23.95;82.42;97273.16;578200;245;65374;-71
2022/07/03 10:32:50;;;;;;;;;;;;;;;23.94;82.37;97258.16;578254;245;68552;-69
2022/07/03 10:35:19;;;;;;;;;;;;;;;23.95;82.43;97256.27;578207;245;66600;-69
2022/07/03 10:37:48;;;;;;;;;;;;;;;23.95;82.54;97256.27;578176;245;64916;-69
2022/07/03 10:46:13;;;;;;;;;;;;;;;23.95;82.53;97250.89;578240;245;63228;-70
2022/07/03 10:48:59;;;;;;;;;;;;;;;23.95;82.55;97246.31;578188;245;68783;-70
2022/07/03 10:51:27;;;;;;;;;;;;;;;23.95;82.48;97240.16;578217;245;68608;-70
2022/07/03 10:54:13;;;;;;;;;;;;;;;23.94;82.43;97250.09;578196;244;63055;-70
2022/07/03 10:57:01;;;;;;;;;;;;;;;23.96;82.49;97244.46;578234;245;68710;-69
2022/07/03 10:59:42;;;;;;;;;;;;;;;23.95;82.52;97243.63;578226;245;68461;-69
2022/07/03 11:02:31;;;;;;;;;;;;;;;23.95;82.61;97237.47;578196;243;62788;-70
2022/07/03 11:05:05;;;;;;;;;;;;;;;23.95;82.54;97235.58;577928;245;68929;-70
2022/07/03 11:07:34;;;;;;;;;;;;;;;23.94;82.48;97236.68;578057;245;66919;-70
2022/07/03 11:10:12;;;;;;;;;;;;;;;23.94;82.53;97231.31;578230;245;65222;-69
2022/07/03 11:13:00;;;;;;;;;;;;;;;23.94;82.49;97233.99;578243;245;67629;-69
2022/07/03 11:15:28;;;;;;;;;;;;;;;23.96;82.51;97228.35;578178;245;66450;-69
2022/07/03 11:18:13;;;;;;;;;;;;;;;23.95;82.51;97216.79;578218;245;62723;-69
2022/07/03 11:20:45;;;;;;;;;;;;;;;23.95;82.46;97214.11;578239;245;68718;-71
2022/07/03 11:23:19;;;;;;;;;;;;;;;23.96;82.55;97217.62;578242;245;68676;-71
2022/07/03 11:25:48;;;;;;;;;;;;;;;23.95;82.42;97214.11;578285;243;65133;-71
2022/07/03 11:28:35;;;;;;;;;;;;;;;23.96;82.53;97213.04;578215;245;68595;-71
2022/07/03 11:33:44;;;;;;;;;;;;;;;23.96;82.60;97196.14;578204;245;65121;-70
2022/07/03 11:36:17;;;;;;;;;;;;;;;23.96;82.50;97198.83;578213;245;68941;-70
2022/07/03 11:38:49;;;;;;;;;;;;;;;23.96;82.49;97210.36;578211;245;68559;-69
2022/07/03 11:41:17;;;;;;;;;;;;;;;23.97;82.41;97206.58;578269;245;62788;-69
2022/07/03 11:43:49;;;;;;;;;;;;;;;23.96;82.45;97199.62;578209;245;68766;-69
2022/07/03 11:46:18;;;;;;;;;;;;;;;23.96;82.44;97196.14;578195;243;68622;-69
2022/07/03 11:48:45;;;;;;;;;;;;;;;23.97;82.42;97203.89;578220;245;64939;-69
2022/07/03 11:51:13;;;;;;;;;;;;;;;23.97;82.40;97197.73;578221;245;68770;-69
2022/07/03 11:53:40;;;;;;;;;;;;;;;23.97;82.29;97201.20;578233;244;68584;-71
2022/07/03 11:56:09;;;;;;;;;;;;;;;23.97;82.43;97201.20;578216;245;64928;-71
2022/07/03 11:58:43;;;;;;;;;;;;;;;23.97;82.43;97190.47;578183;245;68665;-71
2022/07/03 12:01:12;;;;;;;;;;;;;;;23.97;82.37;97185.10;578229;245;68673;-70
2022/07/03 12:03:40;;;;;;;;;;;;;;;23.97;82.29;97187.78;577706;245;64938;-70
2022/07/03 12:06:07;;;;;;;;;;;;;;;23.97;82.37;97184.31;578203;245;68687;-71
2022/07/03 12:08:35;;;;;;;;;;;;;;;23.97;82.41;97177.05;578153;245;68554;-77
2022/07/03 12:11:04;;;;;;;;;;;;;;;23.97;82.32;97185.10;578178;245;64912;-76
2022/07/03 12:13:32;;;;;;;;;;;;;;;23.99;82.06;97182.14;578193;245;68727;-78
2022/07/03 12:16:07;;;;;;;;;;;;;;;23.98;82.14;97178.67;576905;245;66251;-77
2022/07/03 12:18:45;;;;;;;;;;;;;;;23.99;82.12;97177.57;572126;245;62787;-76
2022/07/03 12:21:12;;;;;;;;;;;;;;;23.99;82.23;97169.52;572171;248;66686;-70
2022/07/03 12:23:44;;;;;;;;;;;;;;;24.00;82.29;97163.05;572136;248;66883;-70
2022/07/03 12:26:12;;;;;;;;;;;;;;;24.00;82.22;97160.37;572128;248;64870;-70
2022/07/03 12:28:40;;;;;;;;;;;;;;;24.00;82.52;97167.63;572042;248;68669;-71
2022/07/03 12:31:08;;;;;;;;;;;;;;;24.00;82.55;97164.94;572066;248;66511;-70
2022/07/03 12:33:35;;;;;;;;;;;;;;;24.00;82.42;97168.42;572102;248;62799;-71
2022/07/03 12:36:07;;;;;;;;;;;;;;;24.00;82.50;97156.89;572116;248;66545;-71
2022/07/03 12:38:36;;;;;;;;;;;;;;;23.99;82.46;97150.73;572122;248;68330;-71
2022/07/03 12:41:10;;;;;;;;;;;;;;;23.99;82.47;97149.94;572139;248;62814;-70
2022/07/03 12:43:41;;;;;;;;;;;;;;;23.99;82.38;97156.09;572142;248;68225;-70
2022/07/03 12:46:26;;;;;;;;;;;;;;;24.00;82.31;97151.52;572134;248;68394;-69
2022/07/03 12:48:55;;;;;;;;;;;;;;;23.99;82.29;97150.73;572119;248;63666;-70
2022/07/03 12:51:42;;;;;;;;;;;;;;;23.99;82.20;97148.05;572175;248;66531;-70
2022/07/03 12:54:14;;;;;;;;;;;;;;;23.99;82.24;97145.36;572120;248;68332;-69
2022/07/03 12:56:43;;;;;;;;;;;;;;;24.00;82.27;97143.47;572149;248;64993;-69
2022/07/03 12:59:26;;;;;;;;;;;;;;;24.00;82.22;97144.27;572142;248;68414;-69
2022/07/03 13:02:04;;;;;;;;;;;;;;;23.99;82.25;97134.63;572110;248;68497;-71
2022/07/03 13:04:35;;;;;;;;;;;;;;;23.99;82.28;97134.63;572121;245;65185;-71
2022/07/03 13:07:05;;;;;;;;;;;;;;;23.99;82.19;97139.98;572156;248;68668;-71
2022/07/03 13:09:33;;;;;;;;;;;;;;;24.00;82.26;97130.84;572142;248;68822;-71
2022/07/03 13:12:01;;;;;;;;;;;;;;;23.99;82.23;97115.83;572120;248;64936;-70
2022/07/03 13:14:28;;;;;;;;;;;;;;;23.99;82.37;97117.72;572059;248;68797;-70